createdAt,value
2023-04-25T00:02:13.187Z,9.20
2023-04-25T00:04:40.307Z,9.30
2023-04-25T00:07:07.297Z,9.30
2023-04-25T00:09:34.293Z,9.30
2023-04-25T00:12:02.306Z,9.40
2023-04-25T00:14:29.791Z,9.40
2023-04-25T00:16:57.062Z,9.30
2023-04-25T00:19:23.901Z,9.10
2023-04-25T00:21:50.910Z,8.80
2023-04-25T00:24:17.634Z,8.70
2023-04-25T00:26:44.341Z,8.70
2023-04-25T00:29:11.150Z,8.50
2023-04-25T00:31:38.423Z,8.50
2023-04-25T00:34:05.476Z,8.40
2023-04-25T00:36:32.375Z,8.40
2023-04-25T00:38:59.091Z,8.50
2023-04-25T00:41:27.680Z,8.50
2023-04-25T00:43:56.127Z,8.50
2023-04-25T00:46:23.187Z,8.50
2023-04-25T00:48:49.886Z,8.50
2023-04-25T00:51:21.265Z,8.50
2023-04-25T00:53:49.849Z,8.50
2023-04-25T00:56:17.372Z,8.50
2023-04-25T00:58:44.483Z,8.50
2023-04-25T01:01:12.087Z,8.50
2023-04-25T01:03:44.009Z,8.50
2023-04-25T01:06:11.631Z,8.50
2023-04-25T01:08:41.428Z,8.40
2023-04-25T01:11:08.214Z,8.40
2023-04-25T01:13:35.948Z,8.30
2023-04-25T01:16:03.728Z,8.20
2023-04-25T01:18:30.530Z,8.00
2023-04-25T01:21:10.842Z,8.10
2023-04-25T01:23:40.382Z,8.00
2023-04-25T01:26:09.394Z,7.80
2023-04-25T01:28:36.974Z,7.70
2023-04-25T01:31:04.972Z,7.50
2023-04-25T01:33:31.685Z,7.70
2023-04-25T01:35:58.529Z,7.90
2023-04-25T01:38:25.570Z,8.00
2023-04-25T01:40:53.150Z,8.10
2023-04-25T01:43:20.230Z,8.00
2023-04-25T01:45:47.448Z,7.80
2023-04-25T01:48:15.468Z,7.80
2023-04-25T01:50:44.548Z,7.80
2023-04-25T01:53:14.082Z,7.90
2023-04-25T01:55:41.845Z,8.00
2023-04-25T01:58:13.766Z,7.90
2023-04-25T02:00:56.440Z,7.90
2023-04-25T02:03:26.270Z,7.90
2023-04-25T02:05:53.539Z,7.90
2023-04-25T02:08:21.335Z,7.90
2023-04-25T02:10:48.167Z,7.80
2023-04-25T02:13:18.255Z,7.90
2023-04-25T02:16:04.625Z,7.90
2023-04-25T02:18:32.284Z,8.10
2023-04-25T02:21:00.772Z,8.20
2023-04-25T02:23:27.959Z,8.20
2023-04-25T02:25:56.222Z,8.30
2023-04-25T02:28:22.879Z,8.40
2023-04-25T02:30:49.549Z,8.50
2023-04-25T02:33:17.912Z,8.50
2023-04-25T02:35:44.594Z,8.50
2023-04-25T02:38:11.285Z,8.40
2023-04-25T02:40:41.576Z,8.40
2023-04-25T02:43:08.527Z,8.40
2023-04-25T02:45:35.946Z,8.50
2023-04-25T02:48:03.832Z,8.70
2023-04-25T02:50:32.241Z,8.80
2023-04-25T02:52:59.069Z,8.70
2023-04-25T02:55:30.802Z,8.70
2023-04-25T02:57:59.631Z,8.70
2023-04-25T03:00:39.700Z,8.80
2023-04-25T03:03:06.612Z,8.80
2023-04-25T03:05:33.549Z,8.90
2023-04-25T03:08:00.273Z,8.70
2023-04-25T03:10:27.846Z,8.60
2023-04-25T03:12:56.627Z,8.60
2023-04-25T03:15:23.403Z,8.70
2023-04-25T03:17:50.216Z,8.70
2023-04-25T03:20:16.950Z,8.70
2023-04-25T03:22:43.726Z,8.70
2023-04-25T03:25:10.461Z,8.80
2023-04-25T03:27:37.226Z,8.80
2023-04-25T03:30:04.331Z,8.80
2023-04-25T03:32:31.562Z,8.70
2023-04-25T03:34:58.453Z,8.60
2023-04-25T03:37:27.229Z,8.50
2023-04-25T03:39:54.300Z,8.30
2023-04-25T03:42:23.878Z,8.50
2023-04-25T03:44:52.447Z,8.50
2023-04-25T03:47:19.436Z,8.40
2023-04-25T03:49:46.612Z,8.30
2023-04-25T03:52:13.464Z,8.30
2023-04-25T03:54:41.298Z,8.30
2023-04-25T03:57:14.786Z,8.50
2023-04-25T03:59:43.007Z,8.80
2023-04-25T04:02:12.448Z,8.90
2023-04-25T04:04:40.365Z,8.70
2023-04-25T04:07:07.664Z,8.60
2023-04-25T04:09:39.607Z,8.60
2023-04-25T04:12:10.857Z,8.70
2023-04-25T04:14:39.877Z,8.70
2023-04-25T04:17:06.996Z,8.60
2023-04-25T04:19:34.101Z,8.70
2023-04-25T04:22:09.702Z,8.60
2023-04-25T04:24:36.496Z,8.60
2023-04-25T04:27:06.845Z,8.60
2023-04-25T04:29:38.554Z,8.60
2023-04-25T04:32:17.175Z,8.70
2023-04-25T04:34:45.910Z,8.70
2023-04-25T04:37:16.055Z,8.70
2023-04-25T04:39:43.381Z,8.60
2023-04-25T04:42:25.079Z,8.50
2023-04-25T04:45:03.884Z,8.50
2023-04-25T04:47:45.770Z,8.50
2023-04-25T04:50:17.526Z,8.70
2023-04-25T04:53:03.601Z,8.60
2023-04-25T04:55:53.229Z,8.60
2023-04-25T04:58:50.123Z,8.60
2023-04-25T05:01:23.058Z,8.50
2023-04-25T05:04:16.553Z,8.30
2023-04-25T05:06:49.226Z,8.10
2023-04-25T05:09:34.802Z,8.10
2023-04-25T05:12:17.387Z,8.30
2023-04-25T05:15:13.453Z,8.30
2023-04-25T05:17:40.501Z,8.30
2023-04-25T05:20:21.934Z,8.40
2023-04-25T05:23:05.704Z,8.40
2023-04-25T05:26:04.831Z,8.30
2023-04-25T05:28:45.990Z,8.20
2023-04-25T05:31:31.328Z,8.20
2023-04-25T05:34:02.903Z,8.20
2023-04-25T05:36:49.915Z,8.30
2023-04-25T05:39:17.975Z,8.20
2023-04-25T05:41:53.909Z,8.20
2023-04-25T05:44:46.644Z,8.30
2023-04-25T05:47:26.201Z,8.30
2023-04-25T05:50:03.021Z,8.30
2023-04-25T05:52:43.666Z,8.40
2023-04-25T05:55:21.507Z,8.60
2023-04-25T05:57:49.545Z,8.70
2023-04-25T06:00:18.051Z,8.80
2023-04-25T06:02:48.626Z,8.80
2023-04-25T06:05:16.010Z,8.80
2023-04-25T06:07:42.884Z,8.90
2023-04-25T06:10:09.966Z,9.00
2023-04-25T06:12:36.732Z,8.90
2023-04-25T06:15:13.190Z,8.90
2023-04-25T06:17:50.866Z,8.80
2023-04-25T06:20:17.630Z,8.80
2023-04-25T06:22:44.371Z,8.80
2023-04-25T06:25:11.179Z,8.80
2023-04-25T06:27:38.399Z,8.80
2023-04-25T06:30:06.409Z,8.80
2023-04-25T06:32:35.275Z,8.90
2023-04-25T06:35:02.174Z,9.10
2023-04-25T06:37:28.875Z,9.20
2023-04-25T06:39:56.389Z,9.20
2023-04-25T06:42:23.383Z,9.20
2023-04-25T06:44:53.273Z,9.30
2023-04-25T06:47:21.032Z,9.30
2023-04-25T06:49:48.942Z,9.30
2023-04-25T06:52:15.761Z,9.40
2023-04-25T06:54:42.912Z,9.50
2023-04-25T06:57:19.746Z,9.50
2023-04-25T06:59:47.017Z,9.60
2023-04-25T07:02:13.986Z,9.70
2023-04-25T07:04:41.045Z,9.50
2023-04-25T07:07:09.457Z,9.50
2023-04-25T07:09:46.348Z,9.60
2023-04-25T07:12:13.034Z,9.80
2023-04-25T07:14:40.327Z,9.80
2023-04-25T07:17:08.145Z,9.70
2023-04-25T07:19:35.621Z,9.80
2023-04-25T07:22:03.104Z,10.00
2023-04-25T07:24:30.139Z,10.00
2023-04-25T07:26:57.658Z,9.90
2023-04-25T07:29:46.289Z,10.00
2023-04-25T07:32:14.425Z,9.70
2023-04-25T07:34:43.188Z,9.70
2023-04-25T07:37:10.279Z,9.70
2023-04-25T07:39:47.825Z,9.80
2023-04-25T07:42:14.746Z,10.20
2023-04-25T07:44:43.970Z,10.50
2023-04-25T07:47:12.888Z,10.50
2023-04-25T07:49:39.691Z,10.60
2023-04-25T07:52:09.274Z,10.70
2023-04-25T07:54:38.270Z,10.70
2023-04-25T07:57:14.835Z,10.70
2023-04-25T07:59:41.721Z,10.50
2023-04-25T08:02:08.514Z,10.70
2023-04-25T08:04:35.645Z,10.70
2023-04-25T08:07:04.654Z,10.70
2023-04-25T08:09:38.649Z,10.50
2023-04-25T08:12:09.159Z,10.40
2023-04-25T08:14:37.990Z,10.20
2023-04-25T08:17:06.185Z,10.20
2023-04-25T08:19:34.841Z,9.90
2023-04-25T08:22:03.087Z,9.70
2023-04-25T08:24:39.586Z,9.40
2023-04-25T08:27:08.725Z,9.30
2023-04-25T08:29:36.274Z,9.30
2023-04-25T08:32:02.956Z,9.40
2023-04-25T08:34:30.312Z,9.40
2023-04-25T08:36:59.240Z,9.00
2023-04-25T08:39:53.353Z,9.10
2023-04-25T08:42:37.829Z,9.20
2023-04-25T08:45:07.050Z,9.30
2023-04-25T08:47:40.855Z,9.40
2023-04-25T08:50:08.267Z,9.50
2023-04-25T08:52:44.373Z,9.70
2023-04-25T08:55:13.723Z,10.00
2023-04-25T08:57:46.101Z,10.10
2023-04-25T09:00:13.914Z,10.00
2023-04-25T09:02:44.745Z,10.20
2023-04-25T09:05:15.017Z,10.30
2023-04-25T09:07:42.541Z,10.40
2023-04-25T09:10:10.190Z,10.50
2023-04-25T09:12:38.789Z,10.70
2023-04-25T09:15:13.330Z,10.80
2023-04-25T09:18:07.722Z,11.10
2023-04-25T09:20:56.538Z,11.50
2023-04-25T09:23:28.011Z,11.60
2023-04-25T09:25:57.891Z,11.60
2023-04-25T09:28:30.926Z,11.50
2023-04-25T09:30:59.431Z,11.30
2023-04-25T09:33:46.832Z,11.10
2023-04-25T09:36:14.235Z,10.80
2023-04-25T09:39:02.024Z,11.00
2023-04-25T09:41:30.711Z,10.70
2023-04-25T09:44:01.706Z,10.60
2023-04-25T09:46:38.835Z,10.50
2023-04-25T09:49:09.808Z,10.60
2023-04-25T09:51:59.392Z,10.90
2023-04-25T09:54:31.412Z,11.20
2023-04-25T09:57:15.332Z,11.60
2023-04-25T09:59:50.727Z,11.70
2023-04-25T10:02:21.235Z,11.80
2023-04-25T10:04:53.574Z,11.90
2023-04-25T10:07:32.046Z,12.00
2023-04-25T10:10:03.459Z,11.80
2023-04-25T10:12:34.238Z,11.70
2023-04-25T10:15:02.395Z,11.70
2023-04-25T10:17:29.507Z,11.90
2023-04-25T10:19:57.399Z,11.90
2023-04-25T10:22:37.967Z,11.60
2023-04-25T10:25:05.505Z,11.70
2023-04-25T10:27:32.937Z,11.80
2023-04-25T10:30:07.086Z,12.20
2023-04-25T10:32:34.433Z,12.30
2023-04-25T10:35:25.603Z,12.50
2023-04-25T10:38:07.028Z,13.00
2023-04-25T10:40:34.420Z,13.30
2023-04-25T10:43:32.185Z,13.50
2023-04-25T10:46:01.708Z,13.20
2023-04-25T10:48:29.420Z,12.80
2023-04-25T10:51:13.049Z,12.50
2023-04-25T10:53:39.714Z,12.10
2023-04-25T10:56:23.350Z,12.10
2023-04-25T10:58:52.122Z,12.00
2023-04-25T11:01:26.362Z,11.90
2023-04-25T11:03:59.495Z,12.00
2023-04-25T11:06:53.769Z,12.20
2023-04-25T11:09:25.053Z,12.60
2023-04-25T11:12:01.991Z,13.10
2023-04-25T11:14:28.865Z,13.70
2023-04-25T11:17:00.575Z,14.00
2023-04-25T11:19:29.048Z,14.20
2023-04-25T11:22:02.183Z,14.20
2023-04-25T11:24:35.198Z,14.40
2023-04-25T11:27:03.514Z,14.00
2023-04-25T11:29:34.873Z,13.60
2023-04-25T11:32:03.166Z,13.30
2023-04-25T11:34:34.374Z,13.10
2023-04-25T11:37:02.924Z,12.80
2023-04-25T11:39:30.875Z,12.50
2023-04-25T11:41:57.640Z,12.00
2023-04-25T11:44:24.573Z,11.90
2023-04-25T11:46:51.321Z,12.10
2023-04-25T11:49:22.146Z,12.10
2023-04-25T11:51:49.874Z,12.30
2023-04-25T11:54:17.073Z,12.10
2023-04-25T11:56:47.026Z,12.20
2023-04-25T11:59:14.514Z,12.30
2023-04-25T12:01:50.617Z,12.20
2023-04-25T12:04:25.407Z,11.90
2023-04-25T12:06:54.347Z,11.90
2023-04-25T12:09:29.544Z,11.90
2023-04-25T12:11:57.626Z,11.50
2023-04-25T12:14:28.026Z,11.10
2023-04-25T12:16:58.577Z,11.10
2023-04-25T12:19:26.807Z,11.30
2023-04-25T12:21:58.394Z,11.50
2023-04-25T12:24:28.419Z,11.50
2023-04-25T12:27:04.258Z,11.40
2023-04-25T12:29:41.951Z,11.20
2023-04-25T12:32:16.258Z,11.10
2023-04-25T12:34:43.095Z,10.70
2023-04-25T12:37:10.180Z,10.50
2023-04-25T12:39:37.111Z,10.30
2023-04-25T12:42:05.067Z,10.30
2023-04-25T12:44:33.154Z,10.60
2023-04-25T12:47:00.880Z,10.70
2023-04-25T12:49:27.712Z,11.00
2023-04-25T12:51:54.449Z,11.40
2023-04-25T12:54:21.132Z,11.80
2023-04-25T12:56:48.283Z,12.20
2023-04-25T12:59:15.046Z,12.50
2023-04-25T13:01:41.802Z,12.30
2023-04-25T13:04:08.705Z,11.70
2023-04-25T13:06:35.468Z,11.10
2023-04-25T13:09:02.617Z,10.80
2023-04-25T13:13:56.934Z,11.20
2023-04-25T13:16:23.706Z,11.20
2023-04-25T13:18:50.414Z,11.20
2023-04-25T13:21:17.214Z,11.20
2023-04-25T13:23:45.550Z,11.50
2023-04-25T13:26:12.314Z,11.70
2023-04-25T13:28:39.039Z,11.90
2023-04-25T13:31:06.192Z,12.10
2023-04-25T13:33:33.146Z,12.60
2023-04-25T13:36:01.420Z,13.20
2023-04-25T13:38:28.196Z,13.70
2023-04-25T13:40:54.878Z,14.00
2023-04-25T13:43:24.865Z,13.90
2023-04-25T13:45:52.323Z,13.90
2023-04-25T13:48:20.824Z,13.90
2023-04-25T13:50:47.633Z,13.60
2023-04-25T13:53:14.446Z,13.50
2023-04-25T13:55:41.427Z,13.00
2023-04-25T13:58:08.963Z,12.70
2023-04-25T14:00:44.250Z,12.80
2023-04-25T14:03:11.305Z,12.90
2023-04-25T14:05:39.222Z,12.70
2023-04-25T14:08:10.477Z,12.70
2023-04-25T14:10:37.697Z,12.70
2023-04-25T14:13:05.491Z,12.70
2023-04-25T14:15:35.958Z,12.90
2023-04-25T14:18:02.969Z,12.80
2023-04-25T14:20:30.306Z,12.90
2023-04-25T14:22:58.826Z,12.90
2023-04-25T14:25:26.469Z,12.90
2023-04-25T14:27:53.352Z,13.10
2023-04-25T14:30:21.332Z,13.50
2023-04-25T14:32:49.865Z,13.70
2023-04-25T14:35:17.022Z,13.80
2023-04-25T14:37:43.942Z,13.50
2023-04-25T14:40:11.825Z,13.70
2023-04-25T14:42:38.961Z,13.80
2023-04-25T14:45:08.277Z,13.70
2023-04-25T14:47:38.660Z,13.80
2023-04-25T14:50:07.270Z,13.90
2023-04-25T14:52:34.066Z,13.90
2023-04-25T14:55:06.142Z,13.60
2023-04-25T14:57:34.285Z,13.60
2023-04-25T15:00:01.798Z,13.40
2023-04-25T15:02:29.150Z,13.30
2023-04-25T15:04:57.008Z,13.20
2023-04-25T15:07:26.726Z,13.10
2023-04-25T15:09:54.336Z,13.10
2023-04-25T15:12:21.465Z,13.00
2023-04-25T15:14:48.278Z,12.70
2023-04-25T15:17:15.764Z,12.70
2023-04-25T15:19:42.814Z,12.40
2023-04-25T15:22:09.645Z,12.40
2023-04-25T15:24:36.495Z,12.40
2023-04-25T15:27:03.931Z,12.40
2023-04-25T15:29:30.927Z,12.30
2023-04-25T15:31:58.036Z,12.20
2023-04-25T15:34:24.729Z,12.30
2023-04-25T15:36:51.365Z,12.40
2023-04-25T15:39:18.086Z,12.40
2023-04-25T15:41:44.925Z,12.30
2023-04-25T15:44:11.650Z,12.40
2023-04-25T15:46:38.948Z,12.50
2023-04-25T15:49:05.860Z,12.40
2023-04-25T15:51:33.601Z,12.40
2023-04-25T15:54:02.565Z,12.30
2023-04-25T15:56:29.483Z,12.00
2023-04-25T15:58:56.228Z,12.00
2023-04-25T16:01:24.472Z,11.70
2023-04-25T16:03:52.473Z,11.50
2023-04-25T16:06:19.808Z,11.40
2023-04-25T16:08:46.751Z,11.30
2023-04-25T16:11:14.695Z,11.50
2023-04-25T16:13:41.500Z,11.60
2023-04-25T16:16:08.278Z,11.60
2023-04-25T16:18:35.268Z,11.70
2023-04-25T16:21:01.998Z,11.60
2023-04-25T16:23:28.648Z,11.90
2023-04-25T16:25:55.526Z,12.20
2023-04-25T16:28:22.223Z,12.10
2023-04-25T16:30:49.164Z,11.90
2023-04-25T16:33:16.213Z,11.80
2023-04-25T16:35:42.978Z,11.80
2023-04-25T16:38:09.720Z,11.70
2023-04-25T16:40:36.382Z,11.80
2023-04-25T16:43:03.145Z,11.80
2023-04-25T16:45:29.783Z,11.60
2023-04-25T16:47:56.655Z,11.50
2023-04-25T16:50:23.440Z,11.40
2023-04-25T16:52:51.006Z,11.40
2023-04-25T16:55:18.071Z,11.10
2023-04-25T16:57:44.811Z,11.20
2023-04-25T17:00:13.410Z,11.20
2023-04-25T17:02:40.289Z,11.10
2023-04-25T17:05:07.447Z,11.20
2023-04-25T17:07:34.243Z,11.30
2023-04-25T17:10:01.133Z,11.30
2023-04-25T17:12:27.983Z,11.30
2023-04-25T17:14:54.786Z,11.40
2023-04-25T17:17:21.755Z,11.40
2023-04-25T17:19:48.472Z,11.40
2023-04-25T17:22:15.261Z,11.30
2023-04-25T17:24:42.077Z,11.30
2023-04-25T17:27:08.898Z,11.40
2023-04-25T17:29:35.710Z,11.30
2023-04-25T17:32:03.149Z,11.50
2023-04-25T17:34:31.790Z,11.40
2023-04-25T17:36:58.698Z,11.30
2023-04-25T17:39:25.438Z,11.10
2023-04-25T17:41:52.612Z,11.20
2023-04-25T17:44:19.316Z,11.20
2023-04-25T17:46:46.133Z,10.90
2023-04-25T17:49:12.879Z,10.90
2023-04-25T17:51:39.632Z,11.10
2023-04-25T17:54:06.680Z,11.00
2023-04-25T17:56:37.706Z,11.10
2023-04-25T17:59:04.677Z,11.00
2023-04-25T18:01:32.341Z,11.10
2023-04-25T18:03:59.146Z,11.10
2023-04-25T18:06:28.194Z,11.10
2023-04-25T18:08:55.948Z,11.10
2023-04-25T18:11:23.423Z,11.10
2023-04-25T18:13:50.286Z,11.00
2023-04-25T18:16:19.797Z,10.90
2023-04-25T18:18:52.817Z,10.90
2023-04-25T18:21:20.242Z,10.80
2023-04-25T18:23:47.412Z,10.70
2023-04-25T18:26:18.077Z,10.70
2023-04-25T18:28:49.280Z,10.60
2023-04-25T18:31:17.318Z,10.50
2023-04-25T18:33:45.298Z,10.60
2023-04-25T18:36:12.078Z,10.70
2023-04-25T18:38:38.812Z,10.60
2023-04-25T18:41:34.138Z,10.60
2023-04-25T18:43:58.551Z,10.60
2023-04-25T18:46:25.328Z,10.40
2023-04-25T18:48:53.792Z,10.20
2023-04-25T18:51:24.882Z,10.10
2023-04-25T18:53:52.040Z,10.20
2023-04-25T18:56:20.987Z,10.20
2023-04-25T18:58:47.998Z,10.30
2023-04-25T19:01:15.298Z,10.30
2023-04-25T19:03:42.169Z,10.30
2023-04-25T19:06:08.991Z,10.30
2023-04-25T19:08:35.708Z,10.30
2023-04-25T19:11:14.205Z,10.10
2023-04-25T19:13:51.381Z,10.00
2023-04-25T19:16:19.007Z,10.00
2023-04-25T19:18:46.667Z,10.00
2023-04-25T19:21:13.576Z,10.10
2023-04-25T19:23:41.321Z,10.10
2023-04-25T19:26:11.108Z,10.00
2023-04-25T19:28:44.678Z,10.10
2023-04-25T19:31:12.715Z,10.10
2023-04-25T19:33:39.450Z,10.10
2023-04-25T19:36:06.841Z,9.80
2023-04-25T19:38:33.473Z,9.60
2023-04-25T19:41:01.173Z,9.70
2023-04-25T19:43:27.941Z,9.50
2023-04-25T19:45:54.653Z,9.40
2023-04-25T19:48:21.430Z,9.40
2023-04-25T19:50:48.113Z,9.50
2023-04-25T19:53:14.783Z,9.40
2023-04-25T19:55:42.304Z,9.30
2023-04-25T19:58:09.034Z,9.40
2023-04-25T20:00:35.676Z,9.20
2023-04-25T20:03:02.580Z,9.30
2023-04-25T20:05:29.730Z,9.20
2023-04-25T20:07:56.711Z,9.20
2023-04-25T20:10:23.575Z,9.20
2023-04-25T20:12:50.234Z,9.30
2023-04-25T20:15:18.058Z,9.20
2023-04-25T20:17:44.847Z,9.20
2023-04-25T20:20:12.265Z,9.20
2023-04-25T20:22:40.550Z,9.20
2023-04-25T20:25:09.810Z,9.00
2023-04-25T20:27:40.180Z,8.90
2023-04-25T20:30:08.211Z,8.90
2023-04-25T20:32:35.898Z,8.90
2023-04-25T20:35:04.094Z,9.00
2023-04-25T20:37:33.701Z,8.90
2023-04-25T20:40:01.724Z,8.80
2023-04-25T20:42:28.586Z,8.70
2023-04-25T20:44:55.932Z,8.70
2023-04-25T20:47:22.758Z,8.80
2023-04-25T20:49:49.964Z,8.70
2023-04-25T20:52:17.170Z,8.60
2023-04-25T20:54:45.027Z,8.60
2023-04-25T20:57:12.188Z,8.60
2023-04-25T20:59:38.862Z,8.50
2023-04-25T21:02:05.563Z,8.60
2023-04-25T21:04:32.297Z,8.40
2023-04-25T21:07:00.740Z,8.40
2023-04-25T21:09:27.423Z,8.40
2023-04-25T21:11:54.132Z,8.20
2023-04-25T21:14:20.867Z,8.10
2023-04-25T21:16:47.583Z,8.10
2023-04-25T21:19:14.280Z,8.00
2023-04-25T21:21:40.983Z,7.70
2023-04-25T21:24:09.834Z,7.70
2023-04-25T21:26:36.538Z,7.70
2023-04-25T21:29:03.283Z,7.80
2023-04-25T21:31:30.096Z,7.60
2023-04-25T21:33:56.932Z,7.50
2023-04-25T21:36:23.926Z,7.40
2023-04-25T21:38:50.769Z,7.50
2023-04-25T21:41:17.698Z,7.40
2023-04-25T21:43:45.037Z,7.30
2023-04-25T21:46:22.989Z,7.40
2023-04-25T21:48:51.519Z,7.40
2023-04-25T21:51:18.771Z,7.50
2023-04-25T21:53:45.799Z,7.40
2023-04-25T21:56:12.477Z,7.50
2023-04-25T21:58:39.186Z,7.40
2023-04-25T22:01:05.912Z,7.40
2023-04-25T22:03:34.010Z,7.50
2023-04-25T22:06:01.188Z,7.50
2023-04-25T22:08:28.035Z,7.30
2023-04-25T22:10:57.531Z,7.10
2023-04-25T22:13:24.281Z,7.10
2023-04-25T22:15:51.020Z,7.20
2023-04-25T22:18:17.905Z,7.10
2023-04-25T22:20:44.876Z,7.00
2023-04-25T22:23:12.200Z,6.80
2023-04-25T22:25:38.948Z,7.00
2023-04-25T22:28:05.880Z,7.10
2023-04-25T22:30:32.873Z,7.10
2023-04-25T22:32:59.676Z,6.90
2023-04-25T22:35:26.448Z,6.90
2023-04-25T22:37:53.216Z,6.90
2023-04-25T22:40:20.053Z,6.90
2023-04-25T22:42:47.465Z,6.90
2023-04-25T22:45:14.690Z,7.00
2023-04-25T22:47:41.699Z,6.90
2023-04-25T22:50:13.780Z,6.80
2023-04-25T22:52:42.444Z,6.80
2023-04-25T22:55:10.657Z,6.80
2023-04-25T22:57:38.704Z,6.80
2023-04-25T23:00:19.134Z,6.70
2023-04-25T23:02:46.965Z,6.70
2023-04-25T23:05:14.972Z,6.90
2023-04-25T23:07:42.332Z,6.90
2023-04-25T23:10:09.569Z,6.80
2023-04-25T23:12:36.477Z,6.60
2023-04-25T23:15:05.010Z,6.60
2023-04-25T23:17:31.840Z,6.50
2023-04-25T23:19:58.666Z,6.40
2023-04-25T23:22:25.425Z,6.30
2023-04-25T23:24:52.130Z,6.20
2023-04-25T23:27:18.798Z,6.20
2023-04-25T23:29:54.582Z,6.10
2023-04-25T23:32:22.167Z,6.00
2023-04-25T23:34:49.320Z,6.20
2023-04-25T23:37:16.007Z,6.10
2023-04-25T23:39:50.924Z,6.10
2023-04-25T23:42:18.173Z,5.90
2023-04-25T23:44:44.894Z,5.80
2023-04-25T23:47:13.677Z,5.80
2023-04-25T23:49:41.037Z,5.80
2023-04-25T23:52:07.989Z,5.60
2023-04-25T23:54:34.912Z,5.70
2023-04-25T23:57:04.233Z,5.60
2023-04-25T23:59:31.482Z,5.50
